MUC weather

Munich Airport
Munich, Bavaria, Germany

Public forecast

Using degrees Celsius for public forecast. Weather courtesy of forecast.io.

METAR (pilot weather report)

Retrieved 2018/10/19 08:20 UTC (8 minutes ago):

EDDM 190820Z VRB02KT 0800 R08L/0500N R08R/0400V0600N FG SCT001 07/07 Q1023 BECMG 1200 BCFG

TAF (pilot weather forecast)

Retrieved 2018/10/19 06:27 UTC (2 hours ago):

TAF EDDM 190500Z 1906/2012 VRB03KT 2000 BCFG FEW001 TEMPO 1906/1908 0600 FG BKN001 BECMG 1908/1911 08005KT 6000 BECMG 1915/1917 VRB03KT BECMG 1922/2001 2500 BCFG PROB30 TEMPO 2003/2007 0600 FG BKN001 BECMG 2008/2011 6000